Time;durP1;ratioP1;P1;durP2;ratioP2;P2;SDS_P1;SDS_P2;PMS_P1;PMS_P2;Temp;Humidity;BMP_temperature;BMP_pressure;BME280_temperature;BME280_humidity;BME280_pressure;Samples;Min_cycle;Max_cycle;Signal;HPM_P1;HPM_P2
2023/08/04 00:01:22;;;;;;;13.05;3.63;;;15.90;99.90;;;;;;5039978;28;20038;-85
2023/08/04 00:03:47;;;;;;;10.55;4.15;;;15.80;99.90;;;;;;5039953;28;20071;-86
2023/08/04 00:06:13;;;;;;;12.05;4.20;;;15.80;99.90;;;;;;5006062;28;20378;-86
2023/08/04 00:08:39;;;;;;;7.20;3.33;;;15.80;99.90;;;;;;5040059;28;20105;-85
2023/08/04 00:11:05;;;;;;;13.35;4.28;;;15.70;99.90;;;;;;5005115;28;20057;-84
2023/08/04 00:13:31;;;;;;;12.13;3.80;;;15.70;99.90;;;;;;5022109;28;20029;-85
2023/08/04 00:16:07;;;;;;;11.50;3.00;;;15.70;99.90;;;;;;5022166;28;20492;-85
2023/08/04 00:18:33;;;;;;;13.02;2.75;;;15.60;99.90;;;;;;5040329;28;20438;-85
2023/08/04 00:20:59;;;;;;;13.02;3.88;;;15.60;99.90;;;;;;5022479;28;20116;-84
2023/08/04 00:23:25;;;;;;;10.20;3.42;;;15.50;99.90;;;;;;5021702;28;20034;-85
2023/08/04 00:25:51;;;;;;;13.57;4.18;;;15.50;99.90;;;;;;5005438;28;20029;-84
2023/08/04 00:28:16;;;;;;;12.55;3.78;;;15.60;99.90;;;;;;5021336;28;20508;-84
2023/08/04 00:30:42;;;;;;;9.77;3.42;;;15.50;99.90;;;;;;5039813;28;20025;-84
2023/08/04 00:33:08;;;;;;;11.10;3.47;;;15.50;99.90;;;;;;5039330;28;20034;-85
2023/08/04 00:35:34;;;;;;;14.68;3.90;;;15.50;99.90;;;;;;5039641;28;20030;-83
2023/08/04 00:38:00;;;;;;;15.13;3.50;;;15.50;99.90;;;;;;5021647;28;20057;-83
2023/08/04 00:40:25;;;;;;;11.30;3.65;;;15.50;99.90;;;;;;4988905;28;20076;-83
2023/08/04 00:42:51;;;;;;;13.93;4.55;;;15.50;99.90;;;;;;5021176;28;20112;-84
2023/08/04 00:45:17;;;;;;;11.70;3.60;;;15.50;99.90;;;;;;5021672;28;20362;-84
2023/08/04 00:47:43;;;;;;;11.40;3.72;;;15.50;99.90;;;;;;5021583;28;20034;-84
2023/08/04 00:50:09;;;;;;;8.45;3.08;;;15.40;99.90;;;;;;5005174;28;20026;-84
2023/08/04 00:52:37;;;;;;;8.90;3.10;;;15.40;99.90;;;;;;5021611;28;20029;-84
2023/08/04 00:55:04;;;;;;;8.40;3.40;;;15.40;99.90;;;;;;5038789;28;20033;-84
2023/08/04 00:57:30;;;;;;;12.88;3.35;;;15.40;99.90;;;;;;5005606;28;20049;-84
2023/08/04 00:59:56;;;;;;;10.27;3.22;;;15.40;99.90;;;;;;5022006;28;20033;-84
2023/08/04 01:02:22;;;;;;;12.15;4.00;;;15.30;99.90;;;;;;5005689;28;20068;-83
2023/08/04 01:04:48;;;;;;;10.02;3.67;;;15.30;99.90;;;;;;4988724;28;20037;-84
2023/08/04 01:07:21;;;;;;;11.85;3.15;;;15.30;99.90;;;;;;5021390;28;20397;-84
2023/08/04 01:10:13;;;;;;;14.48;3.80;;;15.30;99.90;;;;;;5020407;28;20785;-83
2023/08/04 01:13:06;;;;;;;11.68;3.63;;;15.30;99.90;;;;;;5035764;28;20072;-84
2023/08/04 01:15:33;;;;;;;8.17;3.37;;;15.20;99.90;;;;;;5001951;28;20053;-84
2023/08/04 01:17:59;;;;;;;9.68;3.38;;;15.20;99.90;;;;;;5035314;28;20339;-84
2023/08/04 01:20:26;;;;;;;10.05;2.88;;;15.10;99.90;;;;;;5018327;28;20068;-84
2023/08/04 01:22:52;;;;;;;8.75;3.22;;;15.10;99.90;;;;;;5035958;28;20034;-84
2023/08/04 01:25:22;;;;;;;7.38;2.95;;;15.10;99.90;;;;;;5035599;28;20048;-84
2023/08/04 01:27:55;;;;;;;9.43;3.25;;;15.10;99.90;;;;;;5001790;28;20061;-84
2023/08/04 01:30:23;;;;;;;11.23;3.33;;;15.10;99.90;;;;;;5035391;28;20030;-84
2023/08/04 01:32:49;;;;;;;10.05;3.47;;;15.10;99.90;;;;;;5018040;28;20036;-84
2023/08/04 01:35:15;;;;;;;11.40;3.60;;;15.10;99.90;;;;;;5017861;28;20132;-84
2023/08/04 01:37:43;;;;;;;8.30;3.42;;;15.10;99.90;;;;;;5035633;28;20045;-84
2023/08/04 01:40:09;;;;;;;8.07;3.33;;;15.10;99.90;;;;;;5018113;28;20466;-84
2023/08/04 01:42:35;;;;;;;15.98;3.92;;;15.20;99.90;;;;;;5034761;28;20041;-85
2023/08/04 01:45:01;;;;;;;7.32;3.40;;;15.20;99.90;;;;;;5017416;28;20029;-85
2023/08/04 01:47:27;;;;;;;14.13;3.78;;;15.20;99.90;;;;;;5001281;28;20021;-85
2023/08/04 01:49:52;;;;;;;12.77;4.47;;;15.20;99.90;;;;;;5035748;28;20025;-85
2023/08/04 01:52:18;;;;;;;14.68;3.33;;;15.20;99.90;;;;;;5035175;28;20105;-85
2023/08/04 01:54:43;;;;;;;11.02;3.78;;;15.20;99.90;;;;;;5001203;28;20030;-85
2023/08/04 01:57:09;;;;;;;11.00;3.95;;;15.20;99.90;;;;;;5017444;28;20045;-85
2023/08/04 01:59:35;;;;;;;12.57;4.13;;;15.20;99.90;;;;;;4985289;28;20378;-84
2023/08/04 02:02:00;;;;;;;13.60;3.88;;;15.20;99.90;;;;;;5017159;28;20034;-83
2023/08/04 02:04:26;;;;;;;10.15;3.63;;;15.20;99.90;;;;;;5017405;28;20040;-82
2023/08/04 02:06:52;;;;;;;14.07;4.10;;;15.20;99.90;;;;;;5001570;28;20032;-83
2023/08/04 02:09:17;;;;;;;13.13;3.72;;;15.20;99.90;;;;;;5016964;28;20033;-83
2023/08/04 02:11:43;;;;;;;12.77;3.83;;;15.20;99.90;;;;;;5000515;28;20046;-84
2023/08/04 02:14:09;;;;;;;9.18;3.45;;;15.20;99.90;;;;;;4984443;28;20029;-84
2023/08/04 02:16:35;;;;;;;10.30;3.03;;;15.20;99.90;;;;;;5034994;28;20087;-85
2023/08/04 02:19:03;;;;;;;10.75;3.53;;;15.20;99.90;;;;;;5035069;28;20037;-85
2023/08/04 02:21:29;;;;;;;8.35;2.90;;;15.20;99.90;;;;;;5034500;28;20029;-84
2023/08/04 02:23:55;;;;;;;10.00;3.35;;;15.20;99.90;;;;;;5033823;28;20030;-85
2023/08/04 02:26:20;;;;;;;16.83;4.07;;;15.20;99.90;;;;;;5017028;28;20071;-83
2023/08/04 02:28:46;;;;;;;14.95;4.55;;;15.30;99.90;;;;;;5017070;28;20021;-84
2023/08/04 02:31:12;;;;;;;11.20;3.55;;;15.30;99.90;;;;;;5034844;28;20095;-84
2023/08/04 02:33:37;;;;;;;10.63;3.92;;;15.30;99.90;;;;;;5034288;28;20029;-84
2023/08/04 02:36:03;;;;;;;14.05;4.35;;;15.30;99.90;;;;;;5016861;28;20056;-84
2023/08/04 02:38:29;;;;;;;10.82;4.55;;;15.30;99.90;;;;;;5000492;28;20025;-84
2023/08/04 02:41:02;;;;;;;16.00;4.85;;;15.30;99.90;;;;;;5016300;28;20026;-83
2023/08/04 02:43:28;;;;;;;11.07;5.03;;;15.30;99.90;;;;;;5016456;28;20033;-85
2023/08/04 02:45:54;;;;;;;17.15;4.00;;;15.30;99.90;;;;;;5000577;28;20126;-83
2023/08/04 02:48:19;;;;;;;9.88;4.55;;;15.30;99.90;;;;;;5034208;28;20527;-82
2023/08/04 02:50:46;;;;;;;11.98;4.47;;;15.30;99.90;;;;;;5016612;28;20482;-85
2023/08/04 02:53:15;;;;;;;13.70;5.05;;;15.30;99.90;;;;;;5016418;28;20032;-84
2023/08/04 02:55:40;;;;;;;18.02;5.38;;;15.30;99.90;;;;;;4999997;28;20060;-84
2023/08/04 02:58:06;;;;;;;12.55;5.72;;;15.30;99.90;;;;;;5016252;28;20136;-85
2023/08/04 03:00:32;;;;;;;13.95;5.65;;;15.30;99.90;;;;;;5034466;28;20031;-84
2023/08/04 03:02:59;;;;;;;12.13;5.35;;;15.30;99.90;;;;;;5034099;28;20083;-84
2023/08/04 03:05:25;;;;;;;12.50;4.85;;;15.30;99.90;;;;;;5016440;28;20120;-83
2023/08/04 03:07:50;;;;;;;14.27;5.10;;;15.30;99.90;;;;;;5016266;28;21121;-83
2023/08/04 03:10:16;;;;;;;10.95;5.53;;;15.20;99.90;;;;;;4999540;28;20030;-84
2023/08/04 03:12:42;;;;;;;11.30;5.07;;;15.20;99.90;;;;;;4999383;28;20057;-83
2023/08/04 03:15:08;;;;;;;11.73;4.85;;;15.20;99.90;;;;;;4999818;28;20044;-83
2023/08/04 03:17:33;;;;;;;10.25;4.95;;;15.20;99.90;;;;;;5016554;28;20037;-83
2023/08/04 03:19:59;;;;;;;15.55;6.18;;;15.20;99.90;;;;;;5015713;28;20026;-82
2023/08/04 03:22:24;;;;;;;15.52;5.32;;;15.20;99.90;;;;;;4999779;28;20026;-83
2023/08/04 03:24:50;;;;;;;11.90;5.40;;;15.20;99.90;;;;;;5033513;28;20084;-83
2023/08/04 03:27:16;;;;;;;14.52;5.80;;;15.20;99.90;;;;;;5033554;28;20033;-83
2023/08/04 03:29:41;;;;;;;18.98;5.18;;;15.20;99.90;;;;;;4999324;28;20037;-83
2023/08/04 03:32:07;;;;;;;12.68;5.03;;;15.20;99.90;;;;;;5015739;28;20033;-83
2023/08/04 03:34:32;;;;;;;13.55;5.00;;;15.20;99.90;;;;;;5015295;28;20132;-83
2023/08/04 03:36:58;;;;;;;15.25;5.72;;;15.20;99.90;;;;;;5033509;28;20045;-84
2023/08/04 03:39:24;;;;;;;12.50;5.35;;;15.30;99.90;;;;;;4999540;28;20386;-84
2023/08/04 03:41:49;;;;;;;13.30;5.75;;;15.30;99.90;;;;;;4998492;28;20029;-85
2023/08/04 03:44:15;;;;;;;13.90;5.60;;;15.20;99.90;;;;;;5033889;28;20418;-84
2023/08/04 03:46:40;;;;;;;15.23;5.63;;;15.20;99.90;;;;;;4999596;28;20030;-84
2023/08/04 03:49:06;;;;;;;15.32;6.20;;;15.30;99.90;;;;;;4999579;28;20032;-84
2023/08/04 03:51:32;;;;;;;16.02;6.35;;;15.30;99.90;;;;;;5015605;28;20517;-83
2023/08/04 03:53:57;;;;;;;15.65;6.47;;;15.20;99.90;;;;;;4983036;28;20056;-84
2023/08/04 03:56:23;;;;;;;14.70;6.70;;;15.20;99.90;;;;;;4998697;28;20541;-83
2023/08/04 03:58:48;;;;;;;14.50;5.45;;;15.20;99.90;;;;;;4999499;28;20025;-84
2023/08/04 04:01:14;;;;;;;14.20;6.18;;;15.30;99.90;;;;;;5015896;28;20038;-85
2023/08/04 04:03:40;;;;;;;14.45;6.00;;;15.20;99.90;;;;;;4982903;28;20028;-85
2023/08/04 04:06:05;;;;;;;11.38;5.47;;;15.20;99.90;;;;;;5015283;28;20116;-83
2023/08/04 04:08:31;;;;;;;12.80;6.25;;;15.20;99.90;;;;;;4998928;28;20029;-85
2023/08/04 04:10:57;;;;;;;16.60;5.38;;;15.20;99.90;;;;;;4996745;28;20040;-84
2023/08/04 04:13:23;;;;;;;11.23;5.53;;;15.20;99.90;;;;;;5014333;28;20029;-84
2023/08/04 04:15:48;;;;;;;15.25;5.95;;;15.30;99.90;;;;;;5014839;28;20100;-84
2023/08/04 04:18:15;;;;;;;12.27;5.13;;;15.30;99.90;;;;;;4997739;28;20080;-82
2023/08/04 04:20:40;;;;;;;12.90;6.05;;;15.30;99.90;;;;;;4998419;28;20034;-84
2023/08/04 04:23:06;;;;;;;17.15;6.88;;;15.30;99.90;;;;;;4998802;28;20040;-84
2023/08/04 04:25:32;;;;;;;12.65;5.38;;;15.20;99.90;;;;;;4998333;28;20087;-84
2023/08/04 04:27:57;;;;;;;12.15;6.03;;;15.20;99.90;;;;;;5033493;28;20057;-84
2023/08/04 04:30:23;;;;;;;12.18;5.75;;;15.30;99.90;;;;;;5015411;28;20021;-84
2023/08/04 04:32:48;;;;;;;10.10;5.10;;;15.30;99.90;;;;;;4999110;28;20036;-84
2023/08/04 04:35:14;;;;;;;13.07;5.30;;;15.30;99.90;;;;;;4998829;28;20029;-84
2023/08/04 04:37:40;;;;;;;12.85;4.65;;;15.30;99.90;;;;;;5032823;28;20046;-83
2023/08/04 04:40:06;;;;;;;15.52;5.35;;;15.30;99.90;;;;;;5015099;28;20474;-84
2023/08/04 04:42:33;;;;;;;12.63;5.30;;;15.30;99.90;;;;;;4997843;28;20021;-83
2023/08/04 04:44:59;;;;;;;16.33;5.10;;;15.40;99.90;;;;;;4998711;28;20041;-83
2023/08/04 04:47:25;;;;;;;12.75;4.88;;;15.40;99.90;;;;;;5002260;28;20030;-83
2023/08/04 04:49:51;;;;;;;11.43;5.63;;;15.40;99.90;;;;;;5002549;28;20036;-84
2023/08/04 04:52:30;;;;;;;12.27;5.18;;;15.40;99.90;;;;;;5036449;28;20038;-83
2023/08/04 04:54:56;;;;;;;11.18;5.28;;;15.40;99.90;;;;;;5018505;28;20038;-84
2023/08/04 04:57:22;;;;;;;10.82;4.93;;;15.50;99.90;;;;;;5002429;28;20052;-85
2023/08/04 04:59:48;;;;;;;12.27;5.32;;;15.50;99.90;;;;;;5002499;28;20021;-83
2023/08/04 05:02:13;;;;;;;12.07;4.90;;;15.50;99.90;;;;;;5018580;28;20478;-83
2023/08/04 05:04:39;;;;;;;13.77;6.28;;;15.50;99.90;;;;;;5002067;28;20446;-83
2023/08/04 05:07:05;;;;;;;14.02;5.38;;;15.50;99.90;;;;;;5018029;28;20083;-83
2023/08/04 05:09:30;;;;;;;14.13;6.30;;;15.50;99.90;;;;;;5002239;28;20386;-84
2023/08/04 05:11:56;;;;;;;11.48;5.30;;;15.50;99.90;;;;;;4985431;28;20057;-84
2023/08/04 05:14:22;;;;;;;11.38;4.60;;;15.50;99.90;;;;;;5017190;28;20053;-83
2023/08/04 05:16:47;;;;;;;10.80;4.03;;;15.50;99.90;;;;;;5001807;28;20037;-84
2023/08/04 05:19:13;;;;;;;9.00;4.18;;;15.50;99.90;;;;;;5034903;28;20565;-83
2023/08/04 05:21:38;;;;;;;6.25;3.00;;;15.60;99.90;;;;;;5035695;28;20034;-84
2023/08/04 05:24:04;;;;;;;15.05;4.20;;;15.60;99.90;;;;;;5001356;28;20032;-84
2023/08/04 05:26:30;;;;;;;8.35;3.45;;;15.60;99.90;;;;;;5002926;28;20033;-84
2023/08/04 05:28:55;;;;;;;8.60;3.95;;;15.60;99.90;;;;;;5017295;28;20041;-84
2023/08/04 05:31:21;;;;;;;13.15;4.00;;;15.60;99.90;;;;;;5017894;28;20038;-84
2023/08/04 05:33:47;;;;;;;8.25;4.60;;;15.60;99.90;;;;;;5001857;28;20037;-84
2023/08/04 05:36:12;;;;;;;5.80;3.10;;;15.70;99.90;;;;;;4985437;28;20142;-84
2023/08/04 05:38:38;;;;;;;9.82;4.03;;;15.80;99.90;;;;;;5001977;28;20381;-83
2023/08/04 05:41:05;;;;;;;7.25;3.13;;;15.80;99.90;;;;;;5000997;28;20088;-79
2023/08/04 05:43:30;;;;;;;7.75;3.88;;;15.80;99.90;;;;;;5018418;28;20041;-79
2023/08/04 05:46:02;;;;;;;7.47;3.38;;;15.80;99.90;;;;;;5001960;28;20034;-79
2023/08/04 05:48:29;;;;;;;7.90;3.90;;;15.90;99.90;;;;;;5036728;28;20029;-80
2023/08/04 05:50:55;;;;;;;9.55;3.92;;;15.90;99.90;;;;;;5020430;28;20037;-80
2023/08/04 05:53:21;;;;;;;10.95;4.25;;;15.90;99.90;;;;;;5020627;28;20037;-78
2023/08/04 05:55:46;;;;;;;11.68;3.53;;;15.90;99.90;;;;;;5018393;28;20025;-78
2023/08/04 05:58:12;;;;;;;9.63;4.88;;;16.00;99.90;;;;;;4975866;28;20593;-78
2023/08/04 06:00:38;;;;;;;11.82;4.03;;;16.00;99.90;;;;;;4982191;28;20129;-78
2023/08/04 06:03:06;;;;;;;9.82;4.35;;;16.00;99.90;;;;;;5016095;28;20029;-79
2023/08/04 06:05:32;;;;;;;9.35;3.80;;;16.00;99.90;;;;;;4982943;28;20042;-80
2023/08/04 06:07:57;;;;;;;11.02;4.55;;;16.10;99.90;;;;;;4998350;28;20400;-78
2023/08/04 06:10:23;;;;;;;13.10;4.93;;;16.10;99.90;;;;;;4998407;28;20033;-79
2023/08/04 06:12:49;;;;;;;13.55;4.18;;;16.10;99.90;;;;;;4994450;28;20042;-78
2023/08/04 06:15:16;;;;;;;12.13;5.53;;;16.10;99.90;;;;;;4978708;28;20044;-79
2023/08/04 06:17:42;;;;;;;9.50;4.53;;;16.20;99.90;;;;;;4996156;28;20109;-80
2023/08/04 06:20:08;;;;;;;10.35;4.38;;;16.20;99.90;;;;;;4996627;28;20030;-79
2023/08/04 06:22:35;;;;;;;9.52;4.80;;;16.20;99.90;;;;;;4996377;28;20030;-78
2023/08/04 06:25:01;;;;;;;11.18;4.63;;;16.20;99.90;;;;;;4996706;28;20070;-79
2023/08/04 06:27:27;;;;;;;15.73;5.28;;;16.30;99.90;;;;;;4979900;28;20026;-80
2023/08/04 06:29:53;;;;;;;10.73;5.38;;;16.30;99.90;;;;;;4998506;28;20058;-80
2023/08/04 06:32:18;;;;;;;9.95;4.20;;;16.30;99.90;;;;;;4978935;28;20108;-79
2023/08/04 06:34:44;;;;;;;8.40;5.03;;;16.40;99.90;;;;;;4995922;28;20086;-79
2023/08/04 06:37:09;;;;;;;11.13;4.78;;;16.40;99.90;;;;;;4979843;28;20180;-83
2023/08/04 06:39:35;;;;;;;11.40;4.63;;;16.50;99.90;;;;;;4980196;28;20053;-83
2023/08/04 06:42:01;;;;;;;10.98;5.15;;;16.60;99.90;;;;;;5004962;28;20038;-82
2023/08/04 06:44:27;;;;;;;6.95;3.72;;;16.60;99.90;;;;;;4992209;28;20497;-80
2023/08/04 06:46:52;;;;;;;9.85;3.60;;;16.70;99.90;;;;;;4994814;28;20030;-79
2023/08/04 06:49:18;;;;;;;12.85;4.53;;;16.60;99.90;;;;;;4977308;28;20029;-79
2023/08/04 06:51:43;;;;;;;12.57;5.00;;;16.70;99.90;;;;;;4982980;28;20419;-80
2023/08/04 06:54:09;;;;;;;7.15;3.17;;;16.80;99.90;;;;;;5014528;28;20116;-79
2023/08/04 06:56:34;;;;;;;8.50;3.72;;;16.80;99.90;;;;;;5013003;28;20045;-80
2023/08/04 06:59:00;;;;;;;9.63;4.10;;;16.80;99.90;;;;;;4996949;28;20029;-80
2023/08/04 07:01:26;;;;;;;9.63;3.90;;;16.90;99.90;;;;;;4996681;28;20397;-78
2023/08/04 07:03:51;;;;;;;6.03;3.30;;;16.90;99.90;;;;;;5001224;28;20040;-78
2023/08/04 07:06:17;;;;;;;5.80;3.58;;;17.00;99.90;;;;;;4993787;28;20106;-79
2023/08/04 07:08:42;;;;;;;8.93;3.53;;;17.00;99.90;;;;;;4976312;28;20434;-79
2023/08/04 07:11:15;;;;;;;8.57;3.78;;;17.10;99.90;;;;;;4994719;28;20030;-79
2023/08/04 07:13:41;;;;;;;15.38;4.40;;;17.20;99.90;;;;;;4980227;28;20087;-79
2023/08/04 07:16:07;;;;;;;7.57;3.60;;;17.30;99.90;;;;;;4978475;28;20478;-79
2023/08/04 07:18:33;;;;;;;12.40;4.15;;;17.40;99.90;;;;;;4991507;28;20034;-79
2023/08/04 07:21:09;;;;;;;8.77;3.90;;;17.50;99.90;;;;;;4983432;28;20485;-79
2023/08/04 07:23:35;;;;;;;9.80;3.10;;;17.50;99.90;;;;;;5033264;28;20465;-79
2023/08/04 07:26:03;;;;;;;10.15;3.20;;;17.70;99.90;;;;;;4999454;28;20079;-79
2023/08/04 07:28:29;;;;;;;7.22;3.17;;;17.70;99.90;;;;;;5016027;28;20100;-79
2023/08/04 07:30:55;;;;;;;7.65;3.08;;;17.70;99.90;;;;;;5015510;28;20018;-79
2023/08/04 07:33:22;;;;;;;6.95;3.55;;;17.80;99.90;;;;;;5015821;28;20446;-79
2023/08/04 07:35:57;;;;;;;7.20;3.65;;;17.80;99.90;;;;;;5033649;28;20033;-79
2023/08/04 07:38:23;;;;;;;8.43;3.42;;;17.80;99.90;;;;;;5033266;28;20044;-79
2023/08/04 07:40:50;;;;;;;9.95;3.72;;;17.90;99.90;;;;;;5015256;28;20095;-79
2023/08/04 07:43:16;;;;;;;9.60;3.50;;;17.90;99.90;;;;;;5033446;28;20102;-79
2023/08/04 07:45:42;;;;;;;8.02;3.17;;;17.90;99.90;;;;;;5015685;28;20103;-79
2023/08/04 07:48:07;;;;;;;9.40;3.80;;;17.90;99.90;;;;;;4999375;28;20034;-78
2023/08/04 07:50:38;;;;;;;5.82;3.00;;;17.90;99.90;;;;;;4999155;28;20057;-78
2023/08/04 07:53:04;;;;;;;7.75;2.70;;;17.90;99.90;;;;;;4994005;28;20033;-79
2023/08/04 07:55:36;;;;;;;11.38;3.33;;;18.00;99.90;;;;;;4977489;28;20026;-79
2023/08/04 07:58:05;;;;;;;5.20;2.00;;;18.00;99.90;;;;;;5029348;28;20033;-79
2023/08/04 08:00:30;;;;;;;5.07;1.95;;;18.10;99.90;;;;;;5015380;28;20598;-78
2023/08/04 08:02:56;;;;;;;5.88;2.22;;;18.20;99.90;;;;;;4983020;28;20029;-78
2023/08/04 08:05:22;;;;;;;5.95;2.13;;;18.30;99.90;;;;;;4993337;28;20508;-78
2023/08/04 08:07:47;;;;;;;8.57;2.72;;;18.40;99.90;;;;;;5012919;28;20079;-77
2023/08/04 08:10:13;;;;;;;4.65;2.10;;;18.50;99.90;;;;;;4979533;28;20205;-77
2023/08/04 08:12:39;;;;;;;5.05;2.30;;;18.70;99.90;;;;;;4978729;28;20057;-77
2023/08/04 08:15:05;;;;;;;6.40;2.20;;;18.80;99.90;;;;;;4995459;28;20026;-77
2023/08/04 08:17:31;;;;;;;6.90;2.30;;;18.90;99.90;;;;;;5012738;28;20451;-77
2023/08/04 08:19:57;;;;;;;6.32;2.85;;;19.00;99.90;;;;;;4980876;28;20364;-78
2023/08/04 08:22:23;;;;;;;6.35;2.63;;;19.00;99.90;;;;;;5017028;28;20034;-78
2023/08/04 08:24:56;;;;;;;7.47;2.55;;;18.90;99.90;;;;;;4983536;28;20022;-77
2023/08/04 08:27:22;;;;;;;6.18;2.60;;;18.90;99.90;;;;;;4999445;28;20033;-78
2023/08/04 08:29:53;;;;;;;5.60;1.67;;;18.80;99.90;;;;;;5000200;28;20034;-78
2023/08/04 08:32:19;;;;;;;6.45;1.60;;;18.70;99.90;;;;;;4983633;28;20026;-78
2023/08/04 08:34:45;;;;;;;5.30;1.70;;;18.60;99.90;;;;;;4999309;28;20373;-78
2023/08/04 08:37:11;;;;;;;5.75;1.52;;;18.60;99.90;;;;;;5016719;28;20042;-78
2023/08/04 08:39:37;;;;;;;4.63;1.45;;;18.60;99.90;;;;;;4982955;28;20036;-78
2023/08/04 08:42:03;;;;;;;4.70;1.55;;;18.60;99.90;;;;;;4999082;28;20061;-78
2023/08/04 08:44:28;;;;;;;3.42;1.50;;;18.60;99.90;;;;;;4983480;28;20056;-78
2023/08/04 08:46:54;;;;;;;4.13;1.35;;;18.60;99.90;;;;;;4999306;28;20021;-79
2023/08/04 08:49:23;;;;;;;4.93;1.60;;;18.70;99.90;;;;;;4999313;28;20026;-79
2023/08/04 08:51:52;;;;;;;6.03;1.58;;;18.80;99.90;;;;;;5003883;28;20113;-78
2023/08/04 08:54:19;;;;;;;3.38;1.10;;;18.80;99.90;;;;;;5002693;28;20025;-80
2023/08/04 08:56:45;;;;;;;6.85;1.10;;;18.80;99.90;;;;;;5018830;28;20444;-79
2023/08/04 08:59:10;;;;;;;5.88;1.58;;;18.90;99.90;;;;;;5036542;28;20064;-79
2023/08/04 09:01:37;;;;;;;5.07;1.90;;;18.90;99.90;;;;;;5002197;28;20431;-79
2023/08/04 09:04:04;;;;;;;5.05;1.30;;;19.10;99.90;;;;;;5018624;28;20379;-79
2023/08/04 09:06:30;;;;;;;5.85;1.20;;;19.20;99.90;;;;;;5018142;28;20022;-84
2023/08/04 09:08:55;;;;;;;6.10;1.55;;;19.20;99.90;;;;;;5019334;28;20040;-84
2023/08/04 09:11:21;;;;;;;4.93;1.30;;;19.10;99.90;;;;;;5018740;28;20402;-83
2023/08/04 09:13:49;;;;;;;4.82;1.10;;;19.00;99.90;;;;;;5018310;28;20172;-83
2023/08/04 09:16:15;;;;;;;4.53;1.73;;;18.90;99.90;;;;;;5002820;28;20022;-85
2023/08/04 09:18:41;;;;;;;5.40;1.50;;;18.80;99.90;;;;;;5002400;28;20049;-83
2023/08/04 09:21:07;;;;;;;2.55;1.10;;;18.80;99.90;;;;;;5036047;28;20033;-84
2023/08/04 09:23:36;;;;;;;5.43;1.10;;;18.80;99.90;;;;;;5036159;28;20025;-84
2023/08/04 09:26:02;;;;;;;6.55;1.63;;;18.80;99.90;;;;;;5018480;28;20037;-84
2023/08/04 09:28:28;;;;;;;3.35;0.80;;;18.90;99.90;;;;;;5032815;23;20068;-85
2023/08/04 09:31:00;;;;;;;2.22;0.70;;;19.00;99.90;;;;;;5025699;28;20114;-85
2023/08/04 09:33:26;;;;;;;2.80;0.60;;;19.00;99.90;;;;;;5031063;28;20026;-86
2023/08/04 09:36:06;;;;;;;2.05;0.55;;;19.10;99.90;;;;;;5015060;28;20280;-85
2023/08/04 09:38:33;;;;;;;2.80;0.50;;;19.20;99.90;;;;;;5014129;28;20186;-84
2023/08/04 09:41:13;;;;;;;2.65;0.50;;;19.30;99.90;;;;;;5012147;28;20506;-86
2023/08/04 09:43:47;;;;;;;2.00;0.60;;;19.30;99.90;;;;;;5014512;28;20117;-85
2023/08/04 09:46:13;;;;;;;1.08;0.30;;;19.40;99.90;;;;;;5015553;28;20040;-85
2023/08/04 09:48:39;;;;;;;1.65;0.68;;;19.50;99.90;;;;;;5014570;28;20029;-84
2023/08/04 09:51:08;;;;;;;2.92;0.60;;;19.60;99.90;;;;;;5014570;28;20065;-86
2023/08/04 09:53:50;;;;;;;2.55;0.60;;;19.80;99.90;;;;;;5015310;28;20100;-85
2023/08/04 09:56:20;;;;;;;1.95;0.70;;;20.00;99.50;;;;;;4996247;28;20033;-86
2023/08/04 09:58:47;;;;;;;2.88;0.70;;;20.20;99.50;;;;;;5012708;28;20030;-84
2023/08/04 10:01:14;;;;;;;3.75;0.77;;;20.30;98.70;;;;;;4997872;28;20033;-82
2023/08/04 10:03:41;;;;;;;3.95;0.63;;;20.40;97.90;;;;;;5014708;28;20026;-82
2023/08/04 10:06:08;;;;;;;3.42;0.90;;;20.40;96.90;;;;;;5014254;28;20064;-86
2023/08/04 10:08:39;;;;;;;2.85;0.77;;;20.30;96.10;;;;;;4997895;28;20485;-85
2023/08/04 10:11:06;;;;;;;3.03;0.82;;;20.30;95.80;;;;;;5014473;28;20490;-83
2023/08/04 10:13:41;;;;;;;2.40;0.70;;;20.40;95.80;;;;;;5014077;28;20054;-81
2023/08/04 10:16:11;;;;;;;3.47;0.60;;;20.50;95.20;;;;;;5015223;28;20034;-84
2023/08/04 10:18:50;;;;;;;4.90;0.90;;;20.70;94.30;;;;;;5013811;28;20114;-82
2023/08/04 10:21:21;;;;;;;2.35;0.57;;;20.70;93.20;;;;;;5015180;28;20580;-85
2023/08/04 10:23:47;;;;;;;1.80;0.40;;;20.70;92.80;;;;;;5015088;28;20101;-84
2023/08/04 10:26:14;;;;;;;2.75;0.50;;;20.80;92.70;;;;;;5013873;28;20125;-82
2023/08/04 10:29:12;;;;;;;3.15;0.50;;;20.80;92.30;;;;;;5013906;28;20379;-86
2023/08/04 10:31:47;;;;;;;2.53;0.50;;;20.90;91.90;;;;;;4982092;28;20044;-84
2023/08/04 10:34:24;;;;;;;3.40;0.60;;;21.00;91.80;;;;;;5013846;28;20030;-84
2023/08/04 10:37:05;;;;;;;1.20;0.50;;;21.10;91.40;;;;;;5014735;28;20112;-85
2023/08/04 10:39:38;;;;;;;2.00;0.40;;;21.20;91.40;;;;;;5013781;28;20021;-84
2023/08/04 10:42:11;;;;;;;0.80;0.40;;;21.30;91.30;;;;;;5013569;28;20125;-85
2023/08/04 10:45:12;;;;;;;1.40;0.50;;;21.40;91.20;;;;;;5013705;28;20037;-84
2023/08/04 10:47:45;;;;;;;4.25;0.70;;;21.60;91.20;;;;;;4922391;29;20032;-84
2023/08/04 10:50:11;;;;;;;2.53;0.60;;;21.70;90.70;;;;;;5004189;28;20037;-84
2023/08/04 10:52:38;;;;;;;4.07;0.60;;;21.80;89.20;;;;;;5014690;28;20285;-83
2023/08/04 10:55:06;;;;;;;1.95;0.60;;;21.90;86.80;;;;;;5014572;28;20030;-84
2023/08/04 10:57:33;;;;;;;2.03;0.50;;;21.90;87.10;;;;;;5013197;28;20022;-83
2023/08/04 11:00:00;;;;;;;2.45;0.40;;;22.40;87.20;;;;;;5013218;28;20026;-84
2023/08/04 11:02:26;;;;;;;2.75;0.68;;;22.70;86.20;;;;;;5013399;28;20124;-84
2023/08/04 11:04:53;;;;;;;2.92;0.60;;;22.90;86.20;;;;;;5014535;28;20026;-85
2023/08/04 11:07:20;;;;;;;1.33;0.65;;;23.10;85.80;;;;;;4980227;28;20034;-83
2023/08/04 11:09:46;;;;;;;2.78;0.55;;;23.20;85.40;;;;;;4996052;28;20030;-85
2023/08/04 11:12:13;;;;;;;1.63;0.50;;;23.50;85.10;;;;;;5012826;28;20489;-83
2023/08/04 11:14:38;;;;;;;2.67;0.50;;;23.90;84.70;;;;;;5012913;28;20117;-83
2023/08/04 11:17:20;;;;;;;2.92;0.43;;;24.10;84.30;;;;;;5012926;28;20589;-83
2023/08/04 11:19:50;;;;;;;2.38;0.43;;;24.20;81.00;;;;;;5012869;28;20026;-83
2023/08/04 11:22:16;;;;;;;2.00;0.40;;;24.20;80.50;;;;;;5013881;28;20026;-82
2023/08/04 11:24:43;;;;;;;2.58;0.80;;;24.70;80.10;;;;;;5013634;28;20030;-84
2023/08/04 11:27:11;;;;;;;2.85;0.45;;;25.20;79.50;;;;;;4994517;28;20026;-84
2023/08/04 11:29:37;;;;;;;2.17;0.40;;;25.80;77.90;;;;;;5026470;28;20057;-85
2023/08/04 11:32:17;;;;;;;3.65;0.60;;;26.50;77.00;;;;;;5015526;28;20041;-84
2023/08/04 11:34:44;;;;;;;3.53;0.70;;;26.60;73.00;;;;;;5014015;28;20029;-83
2023/08/04 11:37:10;;;;;;;2.83;0.60;;;26.50;68.90;;;;;;5032002;28;20044;-84
2023/08/04 11:39:38;;;;;;;2.40;0.50;;;26.10;68.00;;;;;;4997654;28;20025;-83
2023/08/04 11:42:10;;;;;;;6.10;0.70;;;25.80;67.70;;;;;;5014826;28;20025;-86
2023/08/04 11:44:36;;;;;;;2.90;0.70;;;25.50;67.70;;;;;;5033099;28;20350;-83
2023/08/04 11:47:05;;;;;;;4.40;0.68;;;25.20;67.50;;;;;;5033020;28;20469;-83
2023/08/04 11:49:31;;;;;;;2.65;0.60;;;25.00;68.10;;;;;;5015564;28;20485;-82
2023/08/04 11:51:58;;;;;;;5.00;0.70;;;25.00;67.40;;;;;;5032973;28;20025;-81
2023/08/04 11:54:24;;;;;;;4.38;0.70;;;24.70;67.40;;;;;;5032631;28;20038;-83
2023/08/04 11:56:55;;;;;;;2.45;0.60;;;24.40;68.20;;;;;;4998893;28;20385;-81
2023/08/04 11:59:20;;;;;;;3.03;0.80;;;24.10;69.40;;;;;;4999486;28;20132;-82
2023/08/04 12:01:46;;;;;;;3.58;0.68;;;24.00;70.90;;;;;;4999004;28;20557;-82
2023/08/04 12:04:25;;;;;;;4.13;0.70;;;24.20;72.40;;;;;;5033112;28;20032;-83
2023/08/04 12:07:05;;;;;;;2.50;0.50;;;24.60;72.90;;;;;;5033429;28;20060;-83
2023/08/04 12:09:31;;;;;;;3.38;0.70;;;25.10;72.00;;;;;;5033253;28;20036;-85
2023/08/04 12:11:57;;;;;;;1.92;0.55;;;25.10;69.40;;;;;;5014419;28;20018;-84
2023/08/04 12:14:23;;;;;;;3.55;0.60;;;25.00;67.70;;;;;;5014860;28;20041;-80
2023/08/04 12:16:52;;;;;;;3.65;0.70;;;24.80;67.80;;;;;;5014829;28;20390;-84
2023/08/04 12:19:19;;;;;;;3.88;0.52;;;24.60;67.80;;;;;;5031790;28;20025;-84
2023/08/04 12:21:45;;;;;;;2.28;0.43;;;24.70;68.00;;;;;;5000067;28;20030;-85
2023/08/04 12:24:12;;;;;;;2.78;0.70;;;24.60;68.10;;;;;;4996108;28;20112;-85
2023/08/04 12:26:38;;;;;;;3.15;0.55;;;24.80;68.60;;;;;;5013281;28;20076;-84
2023/08/04 12:29:03;;;;;;;3.67;0.68;;;25.00;68.50;;;;;;4992619;28;20050;-84
2023/08/04 12:31:29;;;;;;;2.53;0.50;;;25.20;68.20;;;;;;4993839;28;20030;-84
2023/08/04 12:33:55;;;;;;;4.05;0.68;;;25.20;67.40;;;;;;4993101;28;20019;-83
2023/08/04 12:36:20;;;;;;;3.47;0.70;;;25.30;67.80;;;;;;4994812;28;20482;-84
2023/08/04 12:38:46;;;;;;;3.80;0.70;;;25.20;67.90;;;;;;5003339;28;20375;-85
2023/08/04 12:41:12;;;;;;;3.65;0.93;;;25.20;68.10;;;;;;4995760;28;20034;-84
2023/08/04 12:43:38;;;;;;;2.35;0.50;;;25.00;67.40;;;;;;5012247;28;20382;-82